createdAt,value
2019-06-26T00:02:30.801Z,22.84
2019-06-26T00:05:06.122Z,22.83
2019-06-26T00:07:39.522Z,22.83
2019-06-26T00:10:13.402Z,22.83
2019-06-26T00:12:46.807Z,22.85
2019-06-26T00:15:20.281Z,22.81
2019-06-26T00:17:53.676Z,22.72
2019-06-26T00:20:27.060Z,22.67
2019-06-26T00:23:00.706Z,22.63
2019-06-26T00:25:34.109Z,22.65
2019-06-26T00:28:07.501Z,22.66
2019-06-26T00:30:41.467Z,22.62
2019-06-26T00:33:14.869Z,22.56
2019-06-26T00:35:48.270Z,22.56
2019-06-26T00:38:21.667Z,22.55
2019-06-26T00:40:55.067Z,22.59
2019-06-26T00:43:41.576Z,22.59
2019-06-26T00:46:03.912Z,22.56
2019-06-26T00:48:37.556Z,22.50
2019-06-26T00:51:10.938Z,22.47
2019-06-26T00:53:44.341Z,22.46
2019-06-26T00:56:17.739Z,22.46
2019-06-26T00:58:51.135Z,22.47
2019-06-26T01:01:24.532Z,22.40
2019-06-26T01:03:59.581Z,22.23
2019-06-26T01:06:44.804Z,22.07
2019-06-26T01:09:18.449Z,21.97
2019-06-26T01:11:51.840Z,21.96
2019-06-26T01:14:25.249Z,22.02
2019-06-26T01:16:58.660Z,22.05
2019-06-26T01:19:32.052Z,22.07
2019-06-26T01:22:05.441Z,22.09
2019-06-26T01:24:38.856Z,22.08
2019-06-26T01:27:12.258Z,22.11
2019-06-26T01:29:45.665Z,22.11
2019-06-26T01:32:19.074Z,22.05
2019-06-26T01:34:52.478Z,21.99
2019-06-26T01:37:25.854Z,21.93
2019-06-26T01:39:59.258Z,21.86
2019-06-26T01:42:32.666Z,21.81
2019-06-26T01:45:07.299Z,21.79
2019-06-26T01:47:40.687Z,21.78
2019-06-26T01:50:14.321Z,21.76
2019-06-26T01:52:47.715Z,21.73
2019-06-26T01:55:21.115Z,21.76
2019-06-26T01:57:54.505Z,21.76
2019-06-26T02:00:28.383Z,21.78
2019-06-26T02:03:01.909Z,21.76
2019-06-26T02:05:35.436Z,21.67
2019-06-26T02:08:08.828Z,21.59
2019-06-26T02:10:42.420Z,21.58
2019-06-26T02:13:15.777Z,21.57
2019-06-26T02:15:49.218Z,21.55
2019-06-26T02:18:33.000Z,21.52
2019-06-26T02:21:06.465Z,21.47
2019-06-26T02:23:39.861Z,21.42
2019-06-26T02:26:13.325Z,21.35
2019-06-26T02:28:46.662Z,21.29
2019-06-26T02:31:20.069Z,21.25
2019-06-26T02:33:53.456Z,21.25
2019-06-26T02:36:26.862Z,21.27
2019-06-26T02:39:00.253Z,21.31
2019-06-26T02:41:33.664Z,21.36
2019-06-26T02:44:07.063Z,21.36
2019-06-26T02:46:40.479Z,21.37
2019-06-26T02:49:13.885Z,21.39
2019-06-26T02:51:47.288Z,21.35
2019-06-26T02:54:20.932Z,21.31
2019-06-26T02:56:54.335Z,21.25
2019-06-26T02:59:27.720Z,21.18
2019-06-26T03:02:01.121Z,21.17
2019-06-26T03:04:34.507Z,21.18
2019-06-26T03:07:07.917Z,21.16
2019-06-26T03:09:41.308Z,21.08
2019-06-26T03:12:14.700Z,21.02
2019-06-26T03:14:48.097Z,21.01
2019-06-26T03:17:21.601Z,20.99
2019-06-26T03:19:55.252Z,20.98
2019-06-26T03:22:28.646Z,20.89
2019-06-26T03:25:02.348Z,20.78
2019-06-26T03:27:35.739Z,20.60
2019-06-26T03:30:09.506Z,20.46
2019-06-26T03:32:42.905Z,20.42
2019-06-26T03:35:16.305Z,20.48
2019-06-26T03:37:49.699Z,20.59
2019-06-26T03:40:23.098Z,20.61
2019-06-26T03:42:56.487Z,20.59
2019-06-26T03:45:30.148Z,20.58
2019-06-26T03:48:03.540Z,20.59
2019-06-26T03:50:37.187Z,20.64
2019-06-26T03:53:10.817Z,20.71
2019-06-26T03:55:44.229Z,20.75
2019-06-26T03:58:17.685Z,20.62
2019-06-26T04:00:51.083Z,20.49
2019-06-26T04:03:24.578Z,20.39
2019-06-26T04:05:57.987Z,20.42
2019-06-26T04:08:31.375Z,20.51
2019-06-26T04:11:04.771Z,20.48
2019-06-26T04:13:38.163Z,20.49
2019-06-26T04:16:11.566Z,20.58
2019-06-26T04:18:44.956Z,20.70
2019-06-26T04:21:18.358Z,20.82
2019-06-26T04:23:51.749Z,20.79
2019-06-26T04:26:25.161Z,20.80
2019-06-26T04:28:58.552Z,20.83
2019-06-26T04:31:31.958Z,20.85
2019-06-26T04:34:05.348Z,20.93
2019-06-26T04:36:38.778Z,21.01
2019-06-26T04:39:12.178Z,21.12
2019-06-26T04:41:45.663Z,21.25
2019-06-26T04:44:19.051Z,21.36
2019-06-26T04:46:52.459Z,21.45
2019-06-26T04:49:25.843Z,21.55
2019-06-26T04:51:59.496Z,21.65
2019-06-26T04:54:32.981Z,21.72
2019-06-26T04:57:06.686Z,21.79
2019-06-26T04:59:40.091Z,21.88
2019-06-26T05:02:14.422Z,21.99
2019-06-26T05:04:47.823Z,22.06
2019-06-26T05:07:21.229Z,22.13
2019-06-26T05:09:54.625Z,22.21
2019-06-26T05:12:28.029Z,22.29
2019-06-26T05:15:02.577Z,22.38
2019-06-26T05:17:35.984Z,22.42
2019-06-26T05:20:10.167Z,22.45
2019-06-26T05:22:43.577Z,22.49
2019-06-26T05:25:17.034Z,22.54
2019-06-26T05:27:50.449Z,22.60
2019-06-26T05:30:24.412Z,22.63
2019-06-26T05:32:58.065Z,22.67
2019-06-26T05:35:34.872Z,22.72
2019-06-26T05:38:06.619Z,22.77
2019-06-26T05:40:40.014Z,22.82
2019-06-26T05:43:13.660Z,22.91
2019-06-26T05:45:47.066Z,22.96
2019-06-26T05:48:21.394Z,23.03
2019-06-26T05:50:54.803Z,23.08
2019-06-26T05:53:28.234Z,23.14
2019-06-26T05:56:01.629Z,23.22
2019-06-26T05:58:35.031Z,23.33
2019-06-26T06:01:08.434Z,23.44
2019-06-26T06:03:41.850Z,23.54
2019-06-26T06:06:15.567Z,23.64
2019-06-26T06:08:49.917Z,23.74
2019-06-26T06:11:23.338Z,23.85
2019-06-26T06:13:56.727Z,23.95
2019-06-26T06:16:45.930Z,24.07
2019-06-26T06:19:05.260Z,24.20
2019-06-26T06:21:39.568Z,24.28
2019-06-26T06:24:12.985Z,24.39
2019-06-26T06:26:46.368Z,24.48
2019-06-26T06:29:19.782Z,24.59
2019-06-26T06:31:53.180Z,24.69
2019-06-26T06:34:26.657Z,24.78
2019-06-26T06:37:00.325Z,24.87
2019-06-26T06:39:33.995Z,24.95
2019-06-26T06:42:08.295Z,25.05
2019-06-26T06:44:41.698Z,25.13
2019-06-26T06:47:15.336Z,25.22
2019-06-26T06:49:48.757Z,25.31
2019-06-26T06:52:22.154Z,25.39
2019-06-26T06:54:55.575Z,25.48
2019-06-26T06:57:29.219Z,25.57
2019-06-26T07:00:02.710Z,25.65
2019-06-26T07:02:36.133Z,25.73
2019-06-26T07:05:10.489Z,25.83
2019-06-26T07:07:45.815Z,25.95
2019-06-26T07:10:20.257Z,26.07
2019-06-26T07:12:53.751Z,26.16
2019-06-26T07:15:32.972Z,26.26
2019-06-26T07:18:06.620Z,26.35
2019-06-26T07:20:44.664Z,26.42
2019-06-26T07:23:17.301Z,26.51
2019-06-26T07:25:50.720Z,26.59
2019-06-26T07:28:24.132Z,26.67
2019-06-26T07:30:57.564Z,26.81
2019-06-26T07:33:33.181Z,26.91
2019-06-26T07:36:08.602Z,27.02
2019-06-26T07:38:42.045Z,27.10
2019-06-26T07:41:17.476Z,27.19
2019-06-26T07:43:52.040Z,27.26
2019-06-26T07:46:25.535Z,27.36
2019-06-26T07:48:59.218Z,27.47
2019-06-26T07:51:33.097Z,27.57
2019-06-26T07:54:07.499Z,27.67
2019-06-26T07:56:43.152Z,27.71
2019-06-26T07:59:17.271Z,27.86
2019-06-26T08:01:51.810Z,27.96
2019-06-26T08:04:25.240Z,28.20
2019-06-26T08:06:58.901Z,28.20
2019-06-26T08:09:32.325Z,28.33
2019-06-26T08:12:06.671Z,28.44
2019-06-26T08:14:40.117Z,28.55
2019-06-26T08:17:13.589Z,28.66
2019-06-26T08:19:47.052Z,28.81
2019-06-26T08:22:20.799Z,28.96
2019-06-26T08:24:54.304Z,29.13
2019-06-26T08:27:28.646Z,29.30
2019-06-26T08:30:02.194Z,29.43
2019-06-26T08:32:44.440Z,29.55
2019-06-26T08:35:18.097Z,29.61
2019-06-26T08:38:05.710Z,29.73
2019-06-26T08:40:31.732Z,29.84
2019-06-26T08:43:06.286Z,30.02
2019-06-26T08:45:41.632Z,30.17
2019-06-26T08:48:38.344Z,30.19
2019-06-26T08:50:58.260Z,30.39
2019-06-26T08:53:33.072Z,30.52
2019-06-26T08:56:08.537Z,30.69
2019-06-26T08:58:42.013Z,30.86
2019-06-26T09:01:17.707Z,30.99
2019-06-26T09:03:57.073Z,31.16
2019-06-26T09:06:31.551Z,31.20
2019-06-26T09:09:07.950Z,31.34
2019-06-26T09:11:42.333Z,31.46
2019-06-26T09:14:18.534Z,31.57
2019-06-26T09:16:52.120Z,31.68
2019-06-26T09:19:25.943Z,31.78
2019-06-26T09:22:01.305Z,31.82
2019-06-26T09:24:38.606Z,31.87
2019-06-26T09:27:14.801Z,31.95
2019-06-26T09:29:55.311Z,32.06
2019-06-26T09:32:28.794Z,32.09
2019-06-26T09:35:11.689Z,32.19
2019-06-26T09:37:51.144Z,32.27
2019-06-26T09:40:24.665Z,32.36
2019-06-26T09:42:59.031Z,32.39
2019-06-26T09:45:41.410Z,32.42
2019-06-26T09:48:14.891Z,32.50
2019-06-26T09:51:01.280Z,32.53
2019-06-26T09:53:46.566Z,32.59
2019-06-26T09:56:16.429Z,32.66
2019-06-26T09:58:49.924Z,32.49
2019-06-26T10:01:23.780Z,32.53
2019-06-26T10:03:57.591Z,32.59
2019-06-26T10:06:31.182Z,32.67
2019-06-26T10:09:07.335Z,32.80
2019-06-26T10:11:40.791Z,32.95
2019-06-26T10:14:14.349Z,33.07
2019-06-26T10:16:51.822Z,33.16
2019-06-26T10:19:35.317Z,33.25
2019-06-26T10:22:08.812Z,33.36
2019-06-26T10:24:43.387Z,33.41
2019-06-26T10:27:16.890Z,33.53
2019-06-26T10:29:52.646Z,33.57
2019-06-26T10:32:26.150Z,33.58
2019-06-26T10:34:59.610Z,33.60
2019-06-26T10:37:33.162Z,33.64
2019-06-26T10:40:08.885Z,33.63
2019-06-26T10:42:49.270Z,33.72
2019-06-26T10:45:25.969Z,33.80
2019-06-26T10:48:06.344Z,33.71
2019-06-26T10:50:49.799Z,33.76
2019-06-26T10:53:18.141Z,33.89
2019-06-26T10:55:51.659Z,33.95
2019-06-26T10:58:27.409Z,34.03
2019-06-26T11:01:01.456Z,34.00
2019-06-26T11:03:36.359Z,33.97
2019-06-26T11:06:10.843Z,33.85
2019-06-26T11:08:44.450Z,34.01
2019-06-26T11:11:18.103Z,34.14
2019-06-26T11:13:51.657Z,34.08
2019-06-26T11:16:25.138Z,34.23
2019-06-26T11:19:00.807Z,34.34
2019-06-26T11:21:35.453Z,34.37
2019-06-26T11:24:12.969Z,34.37
2019-06-26T11:26:46.830Z,34.34
2019-06-26T11:29:21.614Z,34.61
2019-06-26T11:31:58.068Z,34.76
2019-06-26T11:34:33.831Z,34.73
2019-06-26T11:37:07.859Z,34.77
2019-06-26T11:39:41.440Z,34.97
2019-06-26T11:42:16.054Z,35.00
2019-06-26T11:45:00.085Z,35.10
2019-06-26T11:47:33.781Z,35.13
2019-06-26T11:50:12.415Z,35.07
2019-06-26T11:52:47.877Z,35.22
2019-06-26T11:55:27.829Z,35.32
2019-06-26T11:58:02.540Z,35.45
2019-06-26T12:00:41.594Z,35.47
2019-06-26T12:03:22.637Z,35.53
2019-06-26T12:06:15.255Z,35.56
2019-06-26T12:08:40.854Z,35.63
2019-06-26T12:11:17.453Z,35.62
2019-06-26T12:13:51.148Z,35.65
2019-06-26T12:16:25.709Z,35.32
2019-06-26T12:18:59.289Z,35.35
2019-06-26T12:21:41.666Z,35.41
2019-06-26T12:24:15.129Z,35.48
2019-06-26T12:26:52.692Z,35.69
2019-06-26T12:29:26.153Z,35.67
2019-06-26T12:31:59.682Z,35.80
2019-06-26T12:34:33.421Z,35.94
2019-06-26T12:37:07.014Z,36.21
2019-06-26T12:39:40.500Z,36.34
2019-06-26T12:42:15.420Z,36.45
2019-06-26T12:44:56.187Z,36.55
2019-06-26T12:47:31.505Z,36.49
2019-06-26T12:50:06.952Z,36.48
2019-06-26T12:52:42.406Z,36.62
2019-06-26T12:55:16.125Z,36.79
2019-06-26T12:57:49.579Z,36.94
2019-06-26T13:00:23.466Z,36.99
2019-06-26T13:02:56.926Z,37.02
2019-06-26T13:05:30.380Z,37.09
2019-06-26T13:08:04.121Z,37.13
2019-06-26T13:10:48.907Z,37.18
2019-06-26T13:13:15.091Z,37.24
2019-06-26T13:15:51.055Z,37.38
2019-06-26T13:18:24.702Z,37.50
2019-06-26T13:21:05.725Z,37.57
2019-06-26T13:23:41.451Z,37.58
2019-06-26T13:26:26.553Z,37.51
2019-06-26T13:28:59.966Z,37.51
2019-06-26T13:31:33.459Z,37.54
2019-06-26T13:34:08.868Z,37.58
2019-06-26T13:36:43.711Z,37.54
2019-06-26T13:39:17.236Z,37.52
2019-06-26T13:41:50.747Z,37.52
2019-06-26T13:44:24.412Z,37.60
2019-06-26T13:47:01.454Z,37.63
2019-06-26T13:49:35.050Z,37.69
2019-06-26T13:52:08.809Z,37.75
2019-06-26T13:54:42.547Z,37.82
2019-06-26T13:57:16.290Z,37.85
2019-06-26T13:59:49.680Z,37.88
2019-06-26T14:02:23.087Z,37.91
2019-06-26T14:04:56.730Z,37.96
2019-06-26T14:07:30.134Z,37.95
2019-06-26T14:10:05.306Z,37.99
2019-06-26T14:12:39.187Z,38.00
2019-06-26T14:15:14.216Z,37.97
2019-06-26T14:17:47.689Z,38.02
2019-06-26T14:20:22.120Z,37.99
2019-06-26T14:22:55.524Z,38.04
2019-06-26T14:25:28.908Z,38.10
2019-06-26T14:28:02.308Z,38.19
2019-06-26T14:30:35.704Z,38.17
2019-06-26T14:33:09.108Z,38.17
2019-06-26T14:35:42.530Z,38.19
2019-06-26T14:38:15.934Z,38.25
2019-06-26T14:40:49.325Z,38.23
2019-06-26T14:43:22.964Z,38.22
2019-06-26T14:45:56.365Z,38.28
2019-06-26T14:48:30.022Z,38.37
2019-06-26T14:51:03.653Z,38.40
2019-06-26T14:53:37.049Z,38.42
2019-06-26T14:56:10.440Z,38.40
2019-06-26T14:58:43.840Z,38.50
2019-06-26T15:01:17.240Z,38.62
2019-06-26T15:03:50.638Z,38.62
2019-06-26T15:06:24.289Z,38.74
2019-06-26T15:08:57.937Z,38.84
2019-06-26T15:11:31.332Z,38.85
2019-06-26T15:14:04.874Z,38.86
2019-06-26T15:16:38.478Z,38.80
2019-06-26T15:19:11.848Z,38.80
2019-06-26T15:21:57.767Z,38.89
2019-06-26T15:24:20.614Z,39.04
2019-06-26T15:26:54.006Z,39.02
2019-06-26T15:29:27.423Z,38.91
2019-06-26T15:32:00.792Z,38.87
2019-06-26T15:34:34.458Z,38.90
2019-06-26T15:37:07.853Z,38.89
2019-06-26T15:39:41.259Z,38.91
2019-06-26T15:42:14.660Z,38.83
2019-06-26T15:44:49.301Z,38.75
2019-06-26T15:47:22.687Z,38.68
2019-06-26T15:49:56.366Z,38.66
2019-06-26T15:52:31.583Z,38.64
2019-06-26T15:55:06.902Z,38.65
2019-06-26T15:57:40.290Z,38.68
2019-06-26T16:00:15.030Z,38.68
2019-06-26T16:02:48.426Z,38.70
2019-06-26T16:05:21.826Z,38.67
2019-06-26T16:07:55.216Z,38.68
2019-06-26T16:10:28.629Z,38.64
2019-06-26T16:13:02.297Z,38.59
2019-06-26T16:15:36.080Z,38.57
2019-06-26T16:18:13.796Z,38.60
2019-06-26T16:20:47.191Z,38.61
2019-06-26T16:23:20.587Z,38.67
2019-06-26T16:25:53.994Z,38.74
2019-06-26T16:28:27.382Z,38.72
2019-06-26T16:31:00.786Z,38.72
2019-06-26T16:33:34.424Z,38.76
2019-06-26T16:36:07.852Z,38.72
2019-06-26T16:38:41.256Z,38.61
2019-06-26T16:41:15.666Z,38.52
2019-06-26T16:43:49.063Z,38.41
2019-06-26T16:46:22.466Z,38.27
2019-06-26T16:48:55.875Z,38.17
2019-06-26T16:51:29.333Z,38.09
2019-06-26T16:54:02.684Z,38.03
2019-06-26T16:56:36.083Z,37.95
2019-06-26T16:59:09.476Z,37.85
2019-06-26T17:01:42.877Z,37.79
2019-06-26T17:04:16.279Z,37.82
2019-06-26T17:06:51.918Z,37.81
2019-06-26T17:09:25.308Z,37.79
2019-06-26T17:11:58.708Z,37.75
2019-06-26T17:14:32.121Z,37.71
2019-06-26T17:17:05.522Z,37.59
2019-06-26T17:19:40.550Z,37.49
2019-06-26T17:22:13.953Z,37.41
2019-06-26T17:24:49.357Z,37.32
2019-06-26T17:27:22.474Z,37.26
2019-06-26T17:29:57.773Z,37.18
2019-06-26T17:32:32.093Z,37.10
2019-06-26T17:35:09.743Z,37.03
2019-06-26T17:37:43.079Z,36.98
2019-06-26T17:40:16.873Z,36.94
2019-06-26T17:42:50.268Z,36.88
2019-06-26T17:45:23.669Z,36.88
2019-06-26T17:47:57.067Z,36.92
2019-06-26T17:50:30.486Z,36.99
2019-06-26T17:53:03.883Z,37.05
2019-06-26T17:55:37.291Z,37.01
2019-06-26T17:58:10.690Z,36.91
2019-06-26T18:00:44.091Z,36.49
2019-06-26T18:03:17.737Z,36.03
2019-06-26T18:05:51.139Z,35.44
2019-06-26T18:08:24.784Z,35.10
2019-06-26T18:10:58.427Z,34.68
2019-06-26T18:13:32.068Z,34.33
2019-06-26T18:16:05.549Z,34.17
2019-06-26T18:18:38.957Z,33.96
2019-06-26T18:21:12.352Z,33.67
2019-06-26T18:23:45.992Z,33.45
2019-06-26T18:26:19.405Z,33.29
2019-06-26T18:28:52.803Z,33.10
2019-06-26T18:31:26.444Z,32.88
2019-06-26T18:34:00.087Z,32.62
2019-06-26T18:36:34.732Z,32.39
2019-06-26T18:39:09.174Z,32.09
2019-06-26T18:41:42.546Z,31.78
2019-06-26T18:44:15.941Z,31.58
2019-06-26T18:46:49.346Z,31.32
2019-06-26T18:49:22.742Z,31.12
2019-06-26T18:51:56.136Z,31.02
2019-06-26T18:54:29.528Z,30.82
2019-06-26T18:57:02.939Z,30.64
2019-06-26T18:59:36.327Z,30.52
2019-06-26T19:02:09.739Z,30.42
2019-06-26T19:04:43.150Z,30.30
2019-06-26T19:07:16.545Z,30.17
2019-06-26T19:09:49.939Z,30.06
2019-06-26T19:12:24.294Z,30.03
2019-06-26T19:14:57.694Z,30.01
2019-06-26T19:17:31.100Z,29.92
2019-06-26T19:20:06.640Z,29.78
2019-06-26T19:22:40.052Z,29.64
2019-06-26T19:25:13.577Z,29.54
2019-06-26T19:27:46.979Z,29.49
2019-06-26T19:30:20.515Z,29.41
2019-06-26T19:32:53.934Z,29.25
2019-06-26T19:35:27.319Z,28.89
2019-06-26T19:38:00.735Z,28.89
2019-06-26T19:40:34.130Z,28.77
2019-06-26T19:43:10.885Z,28.63
2019-06-26T19:45:42.887Z,28.59
2019-06-26T19:48:16.292Z,28.59
2019-06-26T19:50:49.694Z,28.61
2019-06-26T19:53:23.095Z,28.57
2019-06-26T19:55:56.500Z,28.51
2019-06-26T19:58:30.059Z,28.44
2019-06-26T20:01:03.542Z,28.34
2019-06-26T20:03:36.952Z,28.22
2019-06-26T20:06:10.351Z,28.11
2019-06-26T20:08:53.335Z,28.01
2019-06-26T20:11:18.882Z,27.95
2019-06-26T20:13:52.285Z,27.90
2019-06-26T20:16:25.923Z,27.89
2019-06-26T20:18:59.354Z,27.83
2019-06-26T20:21:32.742Z,27.73
2019-06-26T20:24:06.151Z,27.60
2019-06-26T20:26:39.821Z,27.47
2019-06-26T20:29:13.209Z,27.37
2019-06-26T20:31:46.886Z,27.27
2019-06-26T20:34:20.281Z,27.18
2019-06-26T20:36:53.934Z,27.15
2019-06-26T20:39:27.352Z,27.13
2019-06-26T20:42:00.767Z,27.09
2019-06-26T20:44:34.246Z,27.04
2019-06-26T20:47:07.628Z,27.00
2019-06-26T20:49:52.530Z,26.98
2019-06-26T20:52:16.420Z,26.94
2019-06-26T20:55:00.720Z,26.85
2019-06-26T20:57:24.978Z,26.70
2019-06-26T20:59:58.390Z,26.57
2019-06-26T21:02:31.830Z,26.55
2019-06-26T21:05:07.543Z,26.55
2019-06-26T21:07:40.903Z,26.60
2019-06-26T21:10:14.371Z,26.67
2019-06-26T21:12:48.052Z,26.67
2019-06-26T21:15:21.467Z,26.60
2019-06-26T21:17:55.108Z,26.44
2019-06-26T21:20:28.525Z,26.36
2019-06-26T21:23:02.183Z,26.35
2019-06-26T21:25:35.594Z,26.40
2019-06-26T21:28:09.008Z,26.47
2019-06-26T21:30:42.670Z,26.46
2019-06-26T21:33:16.069Z,26.37
2019-06-26T21:35:49.710Z,26.24
2019-06-26T21:38:23.059Z,26.14
2019-06-26T21:40:56.444Z,26.01
2019-06-26T21:43:29.841Z,25.87
2019-06-26T21:46:03.236Z,25.79
2019-06-26T21:48:36.648Z,25.80
2019-06-26T21:51:10.029Z,25.90
2019-06-26T21:53:43.429Z,25.95
2019-06-26T21:56:17.069Z,25.93
2019-06-26T21:58:50.493Z,25.93
2019-06-26T22:01:24.106Z,25.90
2019-06-26T22:03:57.569Z,25.83
2019-06-26T22:06:31.151Z,25.73
2019-06-26T22:09:05.783Z,25.66
2019-06-26T22:11:39.208Z,25.56
2019-06-26T22:14:12.595Z,25.49
2019-06-26T22:16:45.998Z,25.47
2019-06-26T22:19:19.394Z,25.57
2019-06-26T22:21:52.811Z,25.64
2019-06-26T22:24:26.208Z,25.58
2019-06-26T22:26:59.615Z,25.49
2019-06-26T22:29:32.999Z,25.37
2019-06-26T22:32:06.729Z,25.29
2019-06-26T22:34:40.125Z,25.34
2019-06-26T22:37:13.523Z,25.44
2019-06-26T22:39:46.920Z,25.44
2019-06-26T22:42:20.506Z,25.32
2019-06-26T22:44:54.278Z,25.21
2019-06-26T22:47:27.683Z,25.24
2019-06-26T22:50:01.117Z,25.29
2019-06-26T22:52:34.529Z,25.27
2019-06-26T22:55:08.362Z,25.17
2019-06-26T22:57:41.795Z,25.03
2019-06-26T23:00:16.142Z,24.98
2019-06-26T23:02:49.551Z,24.93
2019-06-26T23:05:23.201Z,24.87
2019-06-26T23:07:56.605Z,24.86
2019-06-26T23:10:29.999Z,24.88
2019-06-26T23:13:03.411Z,24.90
2019-06-26T23:15:36.802Z,24.88
2019-06-26T23:18:10.214Z,24.88
2019-06-26T23:20:43.609Z,24.86
2019-06-26T23:23:17.016Z,24.87
2019-06-26T23:25:50.420Z,24.81
2019-06-26T23:28:23.826Z,24.72
2019-06-26T23:30:57.223Z,24.65
2019-06-26T23:33:30.639Z,24.56
2019-06-26T23:36:04.039Z,24.52
2019-06-26T23:38:37.433Z,24.56
2019-06-26T23:41:10.855Z,24.61
2019-06-26T23:43:44.260Z,24.55
2019-06-26T23:46:17.654Z,24.42
2019-06-26T23:48:51.063Z,24.35
2019-06-26T23:51:24.462Z,24.30
2019-06-26T23:53:58.118Z,24.30
2019-06-26T23:56:40.373Z,24.37
2019-06-26T23:59:06.901Z,24.40
